Kobe, Japan

1:20 AM JST on October 22, 2014 (GMT +0900)
North Kobe | Change Station
CLOSE
Current Station
Personal Weather Station
Location: Kobe, Prefettura di Hyogo
Elevation: 965 ft
Nearby Weather Stations

Elev 965 ft 34.73 °N, 135.13 °E | Updated 48 seconds ago

Mostly Cloudy
Mostly Cloudy
68.9 °F
Feels Like 68.9 °F
N
0.0
Wind Variable Wind from West
Gusts 3.0 mph

Today
High -- | Low -- °F
--% Chance of Precip.
Yesterday
High -- | Low -- °F
Precip. -- in
6:10 AM 5:16 PM
Waning Crescent, 5% visible
Pressure 29.83 in
Visibility 6.2 miles
Clouds Few 1500 ft
Scattered Clouds 4500 ft
Mostly Cloudy 8000 ft
Dew Point 63 °F
Humidity 82%
Rainfall 0.00 in
Snow Depth Not available.
UV 0 out of 12
Pollen Not available.
Air Quality Not available.
Flu Activity Not available.
METAR RJBB 211600Z 19014KT 9999 VCSH FEW015 SCT045 BKN080 23/19 Q1010 NOSIG

More Conditions Fewer Conditions

Pressure 29.83 in
Visibility 6.2 miles
Clouds Few 1500 ft
Scattered Clouds 4500 ft
Mostly Cloudy 8000 ft
Dew Point 63 °F
Humidity 82%
Rainfall 0.00 in
Snow Depth Not available.
UV 0 out of 12
Pollen Not available.
Air Quality Not available.
Flu Activity Not available.
METAR RJBB 211600Z 19014KT 9999 VCSH FEW015 SCT045 BKN080 23/19 Q1010 NOSIG

More Conditions Fewer Conditions

10-Day Weather Forecast

Almanac

Astronomy

Oct. 22, 2014 Rise Set
Actual Time 6:10 AM JST 5:16 PM JST
Civil Twilight 5:44 AM JST 5:42 PM JST
Nautical Twilight 5:15 AM JST 6:11 PM JST
Astronomical Twilight 4:46 AM JST 6:41 PM JST
Moon 4:20 AM JST (10/22) 4:19 PM JST (10/22)
Length of Visible Light 11h 57m
Length of Day
11h 06m
Tomorrow will be 2m 0s shorter.
Waning Crescent, 5% of the Moon is Illuminated
Oct 21
Waning Crescent
Oct 23
New
Oct 30
First Quarter
Nov 6
Full
Nov 14
Last Quarter

Yesterday's Extremes

Country Highs Country Lows

Community

WunderPhotos

Upload Photos

1,763,710 photos uploaded!

Nearby

Snow Depth

Not available.

Earthquake Activity

City Distance Mag. Time & Date
No recent earthquake activity has been reported nearby.
Minimum magnitude displayed is 2.5.

Coastal Water Temperatures

Place Temperature
No Stations Reporting

Nearby Weather Stations